Time;durP1;ratioP1;P1;durP2;ratioP2;P2;SDS_P1;SDS_P2;PMS_P1;PMS_P2;Temp;Humidity;BMP_temperature;BMP_pressure;BME280_temperature;BME280_humidity;BME280_pressure;Samples;Min_cycle;Max_cycle;Signal;HPM_P1;HPM_P2
2022/11/28 00:00:47;;;;;;;62.88;7.90;;;;;;;;;;5011900;28;20226;-76
2022/11/28 00:03:14;;;;;;;65.28;7.25;;;;;;;;;;5012334;28;20210;-76
2022/11/28 00:05:41;;;;;;;64.57;8.20;;;;;;;;;;5012595;28;20255;-76
2022/11/28 00:08:08;;;;;;;63.28;8.40;;;;;;;;;;5012388;28;20456;-76
2022/11/28 00:10:40;;;;;;;63.10;8.50;;;;;;;;;;5011244;28;20281;-76
2022/11/28 00:13:07;;;;;;;62.45;8.10;;;;;;;;;;5012443;28;20488;-76
2022/11/28 00:15:34;;;;;;;64.27;8.40;;;;;;;;;;5012161;28;20246;-76
2022/11/28 00:18:01;;;;;;;63.50;8.60;;;;;;;;;;5012359;28;20492;-76
2022/11/28 00:20:28;;;;;;;63.78;7.85;;;;;;;;;;5011624;28;20505;-76
2022/11/28 00:22:55;;;;;;;64.18;7.97;;;;;;;;;;5012343;28;20293;-76
2022/11/28 00:25:22;;;;;;;63.17;8.00;;;;;;;;;;5012225;28;20293;-76
2022/11/28 00:27:51;;;;;;;61.90;7.40;;;;;;;;;;5012132;28;20482;-76
2022/11/28 00:30:18;;;;;;;63.47;8.57;;;;;;;;;;5011119;28;20484;-76
2022/11/28 00:32:45;;;;;;;63.05;8.45;;;;;;;;;;5012253;28;20446;-76
2022/11/28 00:35:13;;;;;;;62.77;7.30;;;;;;;;;;5012469;28;20211;-76
2022/11/28 00:37:40;;;;;;;63.67;8.00;;;;;;;;;;5012176;28;20558;-76
2022/11/28 00:40:08;;;;;;;61.83;7.80;;;;;;;;;;5011072;28;21021;-76
2022/11/28 00:42:35;;;;;;;63.00;8.35;;;;;;;;;;5011950;28;20485;-76
2022/11/28 00:45:03;;;;;;;64.10;8.17;;;;;;;;;;5011846;28;20216;-76
2022/11/28 00:47:31;;;;;;;62.67;8.10;;;;;;;;;;5011949;28;20496;-76
2022/11/28 00:49:58;;;;;;;63.40;7.80;;;;;;;;;;5010801;28;20576;-76
2022/11/28 00:52:25;;;;;;;63.53;7.37;;;;;;;;;;5011977;28;20457;-76
2022/11/28 00:54:52;;;;;;;64.10;8.30;;;;;;;;;;5011751;28;20544;-76
2022/11/28 00:57:19;;;;;;;62.27;7.20;;;;;;;;;;5011805;28;20500;-76
2022/11/28 00:59:46;;;;;;;64.40;8.30;;;;;;;;;;5011149;28;20466;-76
2022/11/28 01:02:15;;;;;;;62.55;8.65;;;;;;;;;;5011944;28;20529;-76
2022/11/28 01:04:42;;;;;;;62.33;8.20;;;;;;;;;;5011861;28;20217;-76
2022/11/28 01:07:09;;;;;;;62.50;8.27;;;;;;;;;;5011726;28;20503;-76
2022/11/28 01:09:36;;;;;;;62.87;7.73;;;;;;;;;;5010749;28;20506;-76
2022/11/28 01:12:03;;;;;;;62.33;6.80;;;;;;;;;;5011609;28;20457;-76
2022/11/28 01:14:30;;;;;;;69.70;8.13;;;;;;;;;;5011864;28;20213;-76
2022/11/28 01:16:58;;;;;;;63.80;9.43;;;;;;;;;;5011827;28;20250;-76
2022/11/28 01:19:26;;;;;;;64.57;8.47;;;;;;;;;;5011223;28;20230;-76
2022/11/28 01:21:53;;;;;;;62.47;8.53;;;;;;;;;;5012724;28;20731;-76
2022/11/28 01:24:20;;;;;;;63.97;8.50;;;;;;;;;;5015127;28;20500;-76
2022/11/28 01:26:48;;;;;;;62.83;7.63;;;;;;;;;;5015292;28;20539;-76
2022/11/28 01:29:15;;;;;;;64.70;7.93;;;;;;;;;;5014626;28;20261;-76
2022/11/28 01:31:42;;;;;;;64.93;6.82;;;;;;;;;;5015210;28;20235;-76
2022/11/28 01:34:09;;;;;;;63.80;8.00;;;;;;;;;;5015229;28;20684;-76
2022/11/28 01:36:38;;;;;;;64.30;7.85;;;;;;;;;;5015005;28;20810;-76
2022/11/28 01:39:05;;;;;;;62.33;7.57;;;;;;;;;;5014009;28;20234;-76
2022/11/28 01:41:32;;;;;;;63.20;8.27;;;;;;;;;;5015211;28;20481;-76
2022/11/28 01:44:04;;;;;;;64.65;8.85;;;;;;;;;;5015104;28;20235;-76
2022/11/28 01:46:32;;;;;;;62.47;7.28;;;;;;;;;;5014890;28;20675;-76
2022/11/28 01:49:02;;;;;;;64.07;7.87;;;;;;;;;;5014009;28;20325;-76
2022/11/28 01:51:30;;;;;;;62.55;7.88;;;;;;;;;;5014683;28;20576;-76
2022/11/28 01:53:59;;;;;;;64.72;8.73;;;;;;;;;;5014658;28;20238;-76
2022/11/28 01:56:29;;;;;;;64.05;7.95;;;;;;;;;;5014724;28;20214;-76
2022/11/28 01:58:59;;;;;;;64.97;9.05;;;;;;;;;;5013936;28;20669;-76
2022/11/28 02:01:26;;;;;;;62.97;8.15;;;;;;;;;;5014778;28;20209;-76
2022/11/28 02:03:54;;;;;;;63.67;8.47;;;;;;;;;;5014520;28;20408;-76
2022/11/28 02:06:23;;;;;;;63.65;8.63;;;;;;;;;;5014753;28;20456;-76
2022/11/28 02:08:51;;;;;;;65.20;8.20;;;;;;;;;;5013761;28;20258;-76
2022/11/28 02:11:29;;;;;;;63.33;8.73;;;;;;;;;;5014504;28;20226;-76
2022/11/28 02:14:03;;;;;;;63.10;8.00;;;;;;;;;;5024502;28;20237;-76
2022/11/28 02:16:38;;;;;;;63.05;8.48;;;;;;;;;;5034035;28;20498;-76
2022/11/28 02:19:20;;;;;;;65.28;8.88;;;;;;;;;;5033428;28;20266;-76
2022/11/28 02:21:54;;;;;;;64.75;9.50;;;;;;;;;;5034151;28;20205;-76
2022/11/28 02:24:38;;;;;;;65.65;9.23;;;;;;;;;;5034138;28;20300;-76
2022/11/28 02:27:12;;;;;;;65.47;9.00;;;;;;;;;;5033874;28;20221;-76
2022/11/28 02:30:03;;;;;;;62.58;7.55;;;;;;;;;;5033055;28;20586;-76
2022/11/28 02:32:38;;;;;;;66.78;9.65;;;;;;;;;;5023363;28;20248;-76
2022/11/28 02:35:09;;;;;;;66.95;9.43;;;;;;;;;;5033775;28;20295;-76
2022/11/28 02:37:41;;;;;;;64.78;9.25;;;;;;;;;;5033702;28;20267;-76
2022/11/28 02:40:11;;;;;;;64.85;9.27;;;;;;;;;;5029286;28;20226;-76
2022/11/28 02:42:42;;;;;;;64.70;9.20;;;;;;;;;;5033807;28;20292;-76
2022/11/28 02:45:11;;;;;;;65.40;8.77;;;;;;;;;;5033539;28;20476;-76
2022/11/28 02:47:43;;;;;;;66.20;10.00;;;;;;;;;;5033587;28;20296;-76
2022/11/28 02:50:12;;;;;;;63.42;9.18;;;;;;;;;;5032506;28;20324;-76
2022/11/28 02:52:41;;;;;;;65.18;8.60;;;;;;;;;;5033404;28;20297;-76
2022/11/28 02:55:09;;;;;;;64.20;9.20;;;;;;;;;;5033433;28;20210;-76
2022/11/28 02:57:37;;;;;;;65.70;9.02;;;;;;;;;;5033375;28;20289;-76
2022/11/28 03:00:19;;;;;;;64.90;9.27;;;;;;;;;;5032684;28;20241;-76
2022/11/28 03:02:49;;;;;;;67.00;8.88;;;;;;;;;;5033182;28;20476;-76
2022/11/28 03:05:21;;;;;;;65.13;10.07;;;;;;;;;;5033393;28;20304;-76
2022/11/28 03:07:56;;;;;;;62.15;7.47;;;;;;;;;;5033156;28;20252;-76
2022/11/28 03:10:27;;;;;;;64.22;7.95;;;;;;;;;;5032269;28;20233;-76
2022/11/28 03:12:57;;;;;;;64.30;9.20;;;;;;;;;;5033296;28;20217;-76
2022/11/28 03:15:30;;;;;;;65.72;9.15;;;;;;;;;;5033209;28;20565;-76
2022/11/28 03:18:03;;;;;;;63.72;8.57;;;;;;;;;;5032892;28;20702;-76
2022/11/28 03:20:34;;;;;;;66.03;8.25;;;;;;;;;;5032045;28;20310;-76
2022/11/28 03:23:08;;;;;;;61.80;7.60;;;;;;;;;;5033064;28;20623;-76
2022/11/28 03:25:40;;;;;;;64.50;8.52;;;;;;;;;;5032646;28;20740;-76
2022/11/28 03:28:12;;;;;;;63.13;7.57;;;;;;;;;;5032627;28;20256;-76
2022/11/28 03:30:42;;;;;;;62.15;7.22;;;;;;;;;;5032127;28;20312;-76
2022/11/28 03:33:13;;;;;;;64.50;8.50;;;;;;;;;;5032562;28;20317;-76
2022/11/28 03:35:43;;;;;;;62.88;7.47;;;;;;;;;;5032858;28;20235;-76
2022/11/28 03:38:13;;;;;;;66.10;8.30;;;;;;;;;;5032528;28;20297;-76
2022/11/28 03:40:43;;;;;;;63.00;8.00;;;;;;;;;;5031931;28;20208;-76
2022/11/28 03:43:12;;;;;;;62.00;7.28;;;;;;;;;;5032538;28;20641;-76
2022/11/28 03:45:41;;;;;;;63.90;8.35;;;;;;;;;;5031665;28;20244;-76
2022/11/28 03:48:11;;;;;;;62.83;7.70;;;;;;;;;;5032375;28;20248;-76
2022/11/28 03:50:40;;;;;;;66.68;8.25;;;;;;;;;;5031288;28;20288;-76
2022/11/28 03:53:10;;;;;;;62.78;7.88;;;;;;;;;;5032298;28;20300;-76
2022/11/28 03:55:40;;;;;;;65.03;8.45;;;;;;;;;;5032257;28;20303;-76
2022/11/28 03:58:10;;;;;;;64.20;8.07;;;;;;;;;;5032080;28;20209;-76
2022/11/28 04:00:40;;;;;;;63.22;7.97;;;;;;;;;;5031756;28;20301;-76
2022/11/28 04:03:10;;;;;;;66.77;8.63;;;;;;;;;;5032119;28;20303;-76
2022/11/28 04:05:42;;;;;;;63.47;8.20;;;;;;;;;;5032069;28;20539;-76
2022/11/28 04:08:13;;;;;;;64.35;7.97;;;;;;;;;;5032008;28;20216;-76
2022/11/28 04:10:42;;;;;;;65.65;8.50;;;;;;;;;;5031253;28;20324;-76
2022/11/28 04:13:16;;;;;;;65.22;8.40;;;;;;;;;;5032006;28;20300;-76
2022/11/28 04:15:51;;;;;;;63.45;8.05;;;;;;;;;;5032040;28;20304;-76
2022/11/28 04:18:20;;;;;;;63.95;9.48;;;;;;;;;;5031744;28;20812;-76
2022/11/28 04:20:50;;;;;;;62.35;7.50;;;;;;;;;;5031785;28;20202;-76
2022/11/28 04:23:18;;;;;;;64.07;8.13;;;;;;;;;;5032177;28;20245;-76
2022/11/28 04:25:48;;;;;;;64.97;8.00;;;;;;;;;;5032085;28;20269;-76
2022/11/28 04:28:18;;;;;;;65.03;8.57;;;;;;;;;;5031691;28;20457;-76
2022/11/28 04:30:48;;;;;;;65.68;8.57;;;;;;;;;;5031398;28;20255;-76
2022/11/28 04:33:16;;;;;;;65.32;8.32;;;;;;;;;;5031815;28;20375;-76
2022/11/28 04:35:46;;;;;;;64.17;9.07;;;;;;;;;;5031664;28;20264;-76
2022/11/28 04:38:14;;;;;;;62.58;7.75;;;;;;;;;;5031752;28;20535;-76
2022/11/28 04:40:45;;;;;;;63.67;8.52;;;;;;;;;;5031403;28;20296;-76
2022/11/28 04:43:17;;;;;;;67.75;9.15;;;;;;;;;;5031843;28;20641;-76
2022/11/28 04:45:45;;;;;;;63.88;7.90;;;;;;;;;;5031712;28;20667;-76
2022/11/28 04:48:13;;;;;;;65.25;8.68;;;;;;;;;;5031757;28;20336;-76
2022/11/28 04:50:43;;;;;;;62.78;7.30;;;;;;;;;;5031082;28;20213;-76
2022/11/28 04:53:14;;;;;;;63.70;7.97;;;;;;;;;;5031795;28;20210;-76
2022/11/28 04:55:45;;;;;;;64.03;8.43;;;;;;;;;;5032465;28;20551;-76
2022/11/28 04:58:15;;;;;;;63.47;8.32;;;;;;;;;;5035610;28;20299;-76
2022/11/28 05:00:42;;;;;;;62.65;8.15;;;;;;;;;;5034775;28;20303;-76
2022/11/28 05:03:10;;;;;;;63.78;9.00;;;;;;;;;;5035650;28;20209;-76
2022/11/28 05:05:43;;;;;;;65.43;8.52;;;;;;;;;;5035567;28;20621;-76
2022/11/28 05:08:10;;;;;;;65.93;8.65;;;;;;;;;;5035339;28;20295;-76
2022/11/28 05:10:37;;;;;;;65.85;8.75;;;;;;;;;;5034605;28;20296;-76
2022/11/28 05:13:06;;;;;;;65.95;8.40;;;;;;;;;;5035214;28;20251;-76
2022/11/28 05:15:33;;;;;;;63.95;8.38;;;;;;;;;;5035289;28;20243;-76
2022/11/28 05:18:01;;;;;;;63.50;8.38;;;;;;;;;;5035462;28;20256;-76
2022/11/28 05:20:28;;;;;;;63.22;8.32;;;;;;;;;;5034586;28;20331;-76
2022/11/28 05:22:55;;;;;;;63.35;8.10;;;;;;;;;;5035204;28;20292;-76
2022/11/28 05:25:23;;;;;;;64.15;8.20;;;;;;;;;;5035050;28;20215;-76
2022/11/28 05:27:50;;;;;;;65.65;8.93;;;;;;;;;;5034995;28;20587;-76
2022/11/28 05:30:18;;;;;;;65.50;8.35;;;;;;;;;;5033914;28;20234;-76
2022/11/28 05:32:45;;;;;;;64.10;8.68;;;;;;;;;;5034798;28;20795;-76
2022/11/28 05:35:13;;;;;;;64.18;8.88;;;;;;;;;;5035092;28;20239;-76
2022/11/28 05:37:40;;;;;;;65.43;8.60;;;;;;;;;;5034888;28;20648;-76
2022/11/28 05:40:08;;;;;;;62.28;7.78;;;;;;;;;;5033851;28;20319;-76
2022/11/28 05:42:35;;;;;;;62.45;7.90;;;;;;;;;;5034936;28;20292;-76
2022/11/28 05:45:02;;;;;;;64.32;8.48;;;;;;;;;;5034704;28;20557;-76
2022/11/28 05:47:32;;;;;;;64.20;8.15;;;;;;;;;;5034740;28;20669;-76
2022/11/28 05:49:59;;;;;;;64.68;8.55;;;;;;;;;;5034038;28;20321;-76
2022/11/28 05:52:31;;;;;;;63.80;8.70;;;;;;;;;;5034515;28;20268;-76
2022/11/28 05:54:58;;;;;;;63.75;8.30;;;;;;;;;;5034713;28;20213;-76
2022/11/28 05:57:28;;;;;;;68.93;8.07;;;;;;;;;;5034829;28;20213;-76
2022/11/28 05:59:56;;;;;;;65.07;8.40;;;;;;;;;;5033682;28;20224;-76
2022/11/28 06:02:23;;;;;;;66.72;9.02;;;;;;;;;;5034401;28;20206;-76
2022/11/28 06:04:51;;;;;;;66.65;9.65;;;;;;;;;;5019224;28;20209;-76
2022/11/28 06:07:19;;;;;;;63.15;8.13;;;;;;;;;;5013736;28;20300;-76
2022/11/28 06:09:46;;;;;;;63.33;8.27;;;;;;;;;;5013820;28;20321;-76
2022/11/28 06:12:13;;;;;;;64.50;8.02;;;;;;;;;;5014498;28;20325;-76
2022/11/28 06:14:40;;;;;;;63.38;7.55;;;;;;;;;;5014498;28;20205;-76
2022/11/28 06:17:07;;;;;;;65.13;8.00;;;;;;;;;;5014375;28;20294;-76
2022/11/28 06:19:34;;;;;;;65.78;8.05;;;;;;;;;;5013414;28;20321;-76
2022/11/28 06:22:03;;;;;;;64.28;7.75;;;;;;;;;;5014158;28;20206;-76
2022/11/28 06:24:30;;;;;;;62.88;8.55;;;;;;;;;;5014368;28;20575;-76
2022/11/28 06:26:57;;;;;;;64.40;8.30;;;;;;;;;;5014093;28;20245;-76
2022/11/28 06:29:24;;;;;;;64.45;8.20;;;;;;;;;;5013286;28;20304;-76
2022/11/28 06:31:52;;;;;;;63.85;8.80;;;;;;;;;;5013772;28;20312;-76
2022/11/28 06:34:19;;;;;;;63.85;8.93;;;;;;;;;;5013846;28;20224;-76
2022/11/28 06:36:46;;;;;;;63.95;8.57;;;;;;;;;;5013909;28;20209;-76
2022/11/28 06:39:16;;;;;;;65.72;9.07;;;;;;;;;;5013189;28;20230;-76
2022/11/28 06:41:44;;;;;;;65.43;9.73;;;;;;;;;;5014078;28;20203;-76
2022/11/28 06:44:13;;;;;;;64.68;9.32;;;;;;;;;;5013894;28;20242;-76
2022/11/28 06:46:40;;;;;;;65.63;9.40;;;;;;;;;;5013708;28;20289;-76
2022/11/28 06:49:07;;;;;;;65.55;9.68;;;;;;;;;;5012784;28;20643;-76
2022/11/28 06:51:34;;;;;;;66.20;11.23;;;;;;;;;;5013552;28;20227;-76
2022/11/28 06:54:01;;;;;;;70.78;11.10;;;;;;;;;;5013780;28;20211;-76
2022/11/28 06:56:30;;;;;;;65.80;9.55;;;;;;;;;;5013588;28;20782;-76
2022/11/28 06:58:59;;;;;;;63.75;9.05;;;;;;;;;;5012765;28;20300;-76
2022/11/28 07:01:27;;;;;;;65.03;10.25;;;;;;;;;;5013317;28;20218;-76
2022/11/28 07:03:54;;;;;;;65.95;9.43;;;;;;;;;;5013323;28;20212;-76
2022/11/28 07:06:22;;;;;;;67.82;9.43;;;;;;;;;;5013506;28;20210;-76
2022/11/28 07:08:50;;;;;;;63.13;8.07;;;;;;;;;;5012621;28;20360;-76
2022/11/28 07:11:18;;;;;;;65.55;9.65;;;;;;;;;;5013302;28;20213;-76
2022/11/28 07:13:47;;;;;;;68.63;9.32;;;;;;;;;;5013252;28;20631;-76
2022/11/28 07:16:15;;;;;;;66.97;11.40;;;;;;;;;;5013116;28;20206;-76
2022/11/28 07:18:42;;;;;;;63.72;9.18;;;;;;;;;;5012026;28;20229;-76
2022/11/28 07:21:10;;;;;;;66.18;9.65;;;;;;;;;;5012611;28;20300;-76
2022/11/28 07:23:37;;;;;;;66.38;8.98;;;;;;;;;;5013247;28;20589;-76
2022/11/28 07:26:05;;;;;;;66.63;9.48;;;;;;;;;;5013065;28;20336;-76
2022/11/28 07:28:32;;;;;;;64.93;9.52;;;;;;;;;;5012322;28;20259;-76
2022/11/28 07:31:02;;;;;;;67.78;11.52;;;;;;;;;;5013132;28;20304;-76
2022/11/28 07:33:30;;;;;;;81.32;17.80;;;;;;;;;;5012765;28;20753;-76
2022/11/28 07:36:00;;;;;;;73.05;13.82;;;;;;;;;;5012966;28;20245;-76
2022/11/28 07:38:27;;;;;;;76.00;13.15;;;;;;;;;;5012763;28;20214;-76
2022/11/28 07:40:54;;;;;;;67.40;10.43;;;;;;;;;;5011890;28;20568;-76
2022/11/28 07:43:21;;;;;;;67.90;10.68;;;;;;;;;;5012684;28;20736;-76
2022/11/28 07:45:48;;;;;;;66.47;9.82;;;;;;;;;;5012598;28;20203;-76
2022/11/28 07:48:17;;;;;;;70.07;11.98;;;;;;;;;;5012483;28;20261;-76
2022/11/28 07:50:44;;;;;;;68.00;12.10;;;;;;;;;;5011978;28;20338;-76
2022/11/28 07:53:11;;;;;;;68.55;11.13;;;;;;;;;;5012453;28;20270;-76
2022/11/28 07:55:38;;;;;;;68.60;11.57;;;;;;;;;;5012375;28;20249;-76
2022/11/28 07:58:05;;;;;;;66.90;11.05;;;;;;;;;;5012625;28;20302;-76
2022/11/28 08:00:33;;;;;;;72.90;11.70;;;;;;;;;;5012078;28;20340;-76
2022/11/28 08:03:00;;;;;;;67.25;11.32;;;;;;;;;;5012554;28;20236;-76
2022/11/28 08:05:29;;;;;;;67.40;11.10;;;;;;;;;;5012531;28;20336;-76
2022/11/28 08:07:56;;;;;;;68.75;11.60;;;;;;;;;;5012284;28;20458;-76
2022/11/28 08:10:23;;;;;;;69.20;10.77;;;;;;;;;;5011488;28;20258;-76
2022/11/28 08:12:50;;;;;;;66.37;10.30;;;;;;;;;;5012430;28;20496;-76
2022/11/28 08:15:18;;;;;;;67.73;10.40;;;;;;;;;;5012308;28;20546;-76
2022/11/28 08:17:45;;;;;;;65.80;10.10;;;;;;;;;;5012199;28;20544;-76
2022/11/28 08:20:12;;;;;;;64.87;9.03;;;;;;;;;;5011339;28;20317;-76
2022/11/28 08:22:41;;;;;;;66.27;8.80;;;;;;;;;;5012067;28;20541;-76
2022/11/28 08:25:08;;;;;;;67.47;10.23;;;;;;;;;;5012335;28;20548;-76
2022/11/28 08:27:35;;;;;;;66.10;9.90;;;;;;;;;;5012097;28;20223;-76
2022/11/28 08:30:03;;;;;;;67.67;9.83;;;;;;;;;;5010947;28;20505;-76
2022/11/28 08:32:30;;;;;;;67.80;10.60;;;;;;;;;;5011919;28;20486;-77
2022/11/28 08:34:57;;;;;;;67.37;9.70;;;;;;;;;;5012104;28;20907;-76
2022/11/28 08:37:25;;;;;;;66.07;9.37;;;;;;;;;;5012432;28;20460;-76
2022/11/28 08:39:53;;;;;;;65.85;9.43;;;;;;;;;;5011216;28;20529;-76
2022/11/28 08:42:21;;;;;;;67.30;10.47;;;;;;;;;;5012030;28;20205;-76
2022/11/28 08:44:48;;;;;;;65.43;10.10;;;;;;;;;;5012034;28;20894;-76
2022/11/28 08:47:16;;;;;;;64.40;8.50;;;;;;;;;;5011860;28;20446;-76
2022/11/28 08:49:43;;;;;;;63.88;8.80;;;;;;;;;;5010836;28;20568;-76
2022/11/28 08:52:10;;;;;;;63.87;9.50;;;;;;;;;;5011575;28;20227;-76
2022/11/28 08:54:37;;;;;;;66.00;10.20;;;;;;;;;;5012073;28;20481;-76
2022/11/28 08:57:06;;;;;;;64.47;9.63;;;;;;;;;;5011788;28;20489;-76
2022/11/28 08:59:33;;;;;;;64.20;9.83;;;;;;;;;;5010910;28;20553;-76
2022/11/28 09:02:00;;;;;;;65.53;9.93;;;;;;;;;;5011809;28;20490;-76
2022/11/28 09:04:27;;;;;;;68.10;10.03;;;;;;;;;;5011578;28;20460;-76
2022/11/28 09:06:54;;;;;;;64.67;8.70;;;;;;;;;;5011884;28;20497;-76
2022/11/28 09:09:22;;;;;;;66.40;9.60;;;;;;;;;;5010975;28;20513;-76
2022/11/28 09:11:49;;;;;;;64.10;8.60;;;;;;;;;;5011756;28;20490;-76
2022/11/28 09:14:17;;;;;;;66.97;9.00;;;;;;;;;;5011672;28;20458;-76
2022/11/28 09:16:44;;;;;;;67.37;9.37;;;;;;;;;;5011531;28;20457;-77
2022/11/28 09:19:11;;;;;;;64.17;8.77;;;;;;;;;;5010806;28;20481;-77
2022/11/28 09:21:39;;;;;;;65.17;8.40;;;;;;;;;;5011559;28;21021;-76
2022/11/28 09:24:07;;;;;;;67.30;9.27;;;;;;;;;;5011781;28;20750;-76
2022/11/28 09:26:34;;;;;;;66.73;8.70;;;;;;;;;;5011589;28;20450;-76
2022/11/28 09:29:01;;;;;;;63.83;8.30;;;;;;;;;;5010680;28;20506;-77
2022/11/28 09:31:30;;;;;;;65.50;9.17;;;;;;;;;;5011368;28;20458;-77
2022/11/28 09:33:57;;;;;;;63.80;8.80;;;;;;;;;;5011591;28;20544;-77
2022/11/28 09:36:25;;;;;;;66.50;9.10;;;;;;;;;;5011439;28;20506;-77
2022/11/28 09:38:52;;;;;;;64.60;8.33;;;;;;;;;;5010732;28;20470;-77
2022/11/28 09:41:38;;;;;;;66.80;10.00;;;;;;;;;;5011509;28;20450;-77
2022/11/28 09:44:09;;;;;;;66.40;10.33;;;;;;;;;;5014277;28;20492;-77
2022/11/28 09:46:39;;;;;;;65.07;9.87;;;;;;;;;;5015136;28;20875;-77
2022/11/28 09:49:15;;;;;;;67.50;9.30;;;;;;;;;;5014228;28;20488;-77
2022/11/28 09:51:47;;;;;;;69.30;10.73;;;;;;;;;;5014914;28;20544;-77
2022/11/28 09:54:18;;;;;;;65.90;9.30;;;;;;;;;;5014776;28;20536;-77
2022/11/28 09:56:47;;;;;;;64.33;8.87;;;;;;;;;;5014728;28;20537;-76
2022/11/28 09:59:17;;;;;;;71.03;12.43;;;;;;;;;;5014034;28;20837;-77
2022/11/28 10:01:49;;;;;;;70.10;11.57;;;;;;;;;;5014816;28;20537;-76
2022/11/28 10:04:22;;;;;;;64.40;8.70;;;;;;;;;;5014605;28;20569;-77
2022/11/28 10:06:53;;;;;;;63.60;9.00;;;;;;;;;;5014523;28;20537;-76
2022/11/28 10:09:28;;;;;;;63.80;9.30;;;;;;;;;;5013857;28;20506;-76
2022/11/28 10:12:01;;;;;;;75.47;9.60;;;;;;;;;;5014401;28;20544;-77
2022/11/28 10:14:46;;;;;;;66.10;9.53;;;;;;;;;;5014560;28;20488;-77
2022/11/28 10:17:17;;;;;;;66.20;8.90;;;;;;;;;;5014309;28;20486;-77
2022/11/28 10:19:46;;;;;;;65.80;9.90;;;;;;;;;;5013744;28;20549;-76
2022/11/28 10:22:16;;;;;;;67.10;9.07;;;;;;;;;;5014403;28;20537;-76
2022/11/28 10:24:45;;;;;;;64.77;8.80;;;;;;;;;;5014467;28;20450;-76
2022/11/28 10:27:14;;;;;;;65.60;8.50;;;;;;;;;;5014206;28;20914;-77
2022/11/28 10:29:44;;;;;;;66.30;9.13;;;;;;;;;;5013241;28;20839;-77
2022/11/28 10:32:14;;;;;;;66.60;8.77;;;;;;;;;;5014128;28;20537;-77
2022/11/28 10:34:45;;;;;;;66.20;9.63;;;;;;;;;;5014215;28;20600;-77
2022/11/28 10:37:15;;;;;;;64.97;8.60;;;;;;;;;;5014415;28;20540;-77
2022/11/28 10:39:43;;;;;;;63.50;8.70;;;;;;;;;;5013075;28;20502;-77
2022/11/28 10:42:14;;;;;;;64.60;9.13;;;;;;;;;;5014235;28;20460;-77
2022/11/28 10:44:50;;;;;;;64.27;9.10;;;;;;;;;;5014154;28;20536;-77
2022/11/28 10:47:20;;;;;;;65.30;8.67;;;;;;;;;;5013971;28;20888;-77
2022/11/28 10:49:55;;;;;;;65.30;10.33;;;;;;;;;;5012932;28;20478;-76
2022/11/28 10:52:27;;;;;;;66.80;9.83;;;;;;;;;;5013290;28;20449;-77
2022/11/28 10:55:11;;;;;;;66.17;9.90;;;;;;;;;;5008500;28;20553;-78
2022/11/28 10:57:41;;;;;;;65.70;8.80;;;;;;;;;;5009838;28;21013;-76
2022/11/28 11:00:12;;;;;;;64.70;8.40;;;;;;;;;;5012511;28;20986;-76
2022/11/28 11:02:41;;;;;;;64.20;8.33;;;;;;;;;;5013445;28;20529;-76
2022/11/28 11:05:13;;;;;;;67.10;9.47;;;;;;;;;;5013160;28;20947;-75
2022/11/28 11:07:44;;;;;;;63.80;8.70;;;;;;;;;;5013295;28;20979;-77
2022/11/28 11:10:14;;;;;;;65.60;9.70;;;;;;;;;;5012490;28;20501;-76
2022/11/28 11:12:42;;;;;;;64.77;8.83;;;;;;;;;;5013166;28;20929;-77
2022/11/28 11:15:20;;;;;;;64.00;9.10;;;;;;;;;;5022831;28;20485;-76
2022/11/28 11:17:49;;;;;;;64.37;9.00;;;;;;;;;;5032654;28;20536;-76
2022/11/28 11:20:26;;;;;;;67.20;9.13;;;;;;;;;;5032091;28;20480;-76
2022/11/28 11:22:55;;;;;;;66.97;9.67;;;;;;;;;;5032866;28;20467;-76
2022/11/28 11:25:23;;;;;;;65.37;8.63;;;;;;;;;;5022045;28;20457;-76
2022/11/28 11:27:51;;;;;;;66.50;8.53;;;;;;;;;;5012961;28;20537;-76
2022/11/28 11:30:23;;;;;;;66.67;9.67;;;;;;;;;;5011821;28;20523;-77
2022/11/28 11:32:50;;;;;;;70.40;9.93;;;;;;;;;;5011759;28;20487;-76
2022/11/28 11:35:20;;;;;;;65.03;9.23;;;;;;;;;;5012938;28;20489;-77
2022/11/28 11:37:49;;;;;;;66.30;9.40;;;;;;;;;;5012666;28;20446;-77
2022/11/28 11:40:22;;;;;;;69.63;10.17;;;;;;;;;;5011792;28;20557;-77
2022/11/28 11:42:52;;;;;;;69.73;10.40;;;;;;;;;;5012430;28;20485;-77
2022/11/28 11:45:31;;;;;;;65.07;9.40;;;;;;;;;;5012421;28;21128;-77
2022/11/28 11:47:58;;;;;;;66.10;9.83;;;;;;;;;;5012469;28;20544;-77
2022/11/28 11:50:27;;;;;;;66.23;8.53;;;;;;;;;;5011856;28;20580;-77
2022/11/28 11:53:02;;;;;;;64.70;9.47;;;;;;;;;;5012331;28;20600;-77
2022/11/28 11:55:31;;;;;;;65.00;8.83;;;;;;;;;;5012578;28;20533;-77
2022/11/28 11:58:00;;;;;;;64.13;9.07;;;;;;;;;;5012329;28;20946;-77
2022/11/28 12:00:29;;;;;;;65.93;9.80;;;;;;;;;;5011567;28;20474;-77
2022/11/28 12:02:58;;;;;;;63.37;9.27;;;;;;;;;;5012325;28;20528;-77
2022/11/28 12:05:30;;;;;;;63.80;8.67;;;;;;;;;;5013665;28;20501;-78
2022/11/28 12:07:58;;;;;;;66.90;10.43;;;;;;;;;;5019499;28;20851;-78
2022/11/28 12:10:28;;;;;;;66.07;10.47;;;;;;;;;;5012215;28;20521;-77
2022/11/28 12:12:55;;;;;;;67.30;10.73;;;;;;;;;;5009228;28;20934;-78
2022/11/28 12:15:29;;;;;;;63.87;9.07;;;;;;;;;;5012394;28;20815;-77
2022/11/28 12:18:02;;;;;;;68.47;10.40;;;;;;;;;;5011883;28;20545;-77
2022/11/28 12:20:34;;;;;;;65.47;10.30;;;;;;;;;;5011327;28;20508;-77
2022/11/28 12:23:06;;;;;;;64.17;9.57;;;;;;;;;;5011985;28;20460;-76
2022/11/28 12:25:39;;;;;;;71.17;10.40;;;;;;;;;;5012032;28;20539;-77
2022/11/28 12:28:11;;;;;;;65.90;9.90;;;;;;;;;;5011791;28;20993;-77
2022/11/28 12:30:44;;;;;;;65.40;10.20;;;;;;;;;;5011003;28;20552;-76
2022/11/28 12:33:31;;;;;;;68.60;10.63;;;;;;;;;;5011660;28;20569;-76
2022/11/28 12:36:07;;;;;;;64.80;9.23;;;;;;;;;;5012200;28;20541;-76
2022/11/28 12:38:40;;;;;;;69.20;9.60;;;;;;;;;;5010874;28;20939;-77
2022/11/28 12:41:17;;;;;;;67.47;10.80;;;;;;;;;;5011542;28;20497;-76
2022/11/28 12:43:51;;;;;;;65.30;9.63;;;;;;;;;;5011844;28;20524;-76
2022/11/28 12:46:23;;;;;;;66.27;9.80;;;;;;;;;;5011767;28;20492;-77
2022/11/28 12:48:57;;;;;;;66.83;10.80;;;;;;;;;;5010752;28;20911;-77
2022/11/28 12:51:31;;;;;;;66.17;10.50;;;;;;;;;;5011515;28;20446;-77
2022/11/28 12:54:06;;;;;;;64.37;10.03;;;;;;;;;;5011633;28;20946;-77
2022/11/28 12:56:40;;;;;;;62.97;8.67;;;;;;;;;;5011724;28;20540;-76
2022/11/28 12:59:10;;;;;;;67.97;10.33;;;;;;;;;;5010708;28;20904;-77
2022/11/28 13:01:45;;;;;;;68.77;12.30;;;;;;;;;;5011708;28;20866;-77
2022/11/28 13:04:20;;;;;;;75.03;14.23;;;;;;;;;;5012050;28;20452;-77
2022/11/28 13:06:51;;;;;;;68.37;11.27;;;;;;;;;;5008395;28;20544;-77
2022/11/28 13:09:22;;;;;;;67.77;11.23;;;;;;;;;;5010772;28;20889;-77
2022/11/28 13:11:57;;;;;;;73.33;10.83;;;;;;;;;;5011482;28;20490;-76
2022/11/28 13:14:30;;;;;;;68.27;10.83;;;;;;;;;;5011227;28;20495;-77
2022/11/28 13:17:02;;;;;;;66.77;11.17;;;;;;;;;;5011548;28;20520;-77
2022/11/28 13:19:32;;;;;;;66.87;11.47;;;;;;;;;;5014220;28;20545;-77
2022/11/28 13:22:03;;;;;;;70.80;11.40;;;;;;;;;;5015534;28;20873;-77
2022/11/28 13:24:34;;;;;;;94.30;28.17;;;;;;;;;;5014998;28;20533;-76
2022/11/28 13:27:05;;;;;;;69.80;12.40;;;;;;;;;;5014995;28;20636;-76
2022/11/28 13:29:36;;;;;;;67.50;11.07;;;;;;;;;;5014146;28;20553;-76
2022/11/28 13:32:08;;;;;;;68.77;12.70;;;;;;;;;;5014930;28;20456;-77
2022/11/28 13:34:36;;;;;;;67.90;11.23;;;;;;;;;;5014930;28;20572;-76
2022/11/28 13:37:09;;;;;;;66.40;11.70;;;;;;;;;;5010944;28;20886;-76
2022/11/28 13:39:39;;;;;;;69.00;11.50;;;;;;;;;;5014001;28;20501;-76
2022/11/28 13:42:16;;;;;;;66.00;10.23;;;;;;;;;;5014871;28;20460;-76
2022/11/28 13:44:47;;;;;;;69.47;12.03;;;;;;;;;;5014854;28;20537;-76
2022/11/28 13:47:26;;;;;;;71.17;11.17;;;;;;;;;;5014669;28;20972;-77
2022/11/28 13:50:08;;;;;;;65.80;10.57;;;;;;;;;;5013547;28;20598;-76
2022/11/28 13:52:42;;;;;;;67.60;11.47;;;;;;;;;;5014214;28;21056;-76
2022/11/28 13:55:36;;;;;;;67.30;11.10;;;;;;;;;;5014589;28;20523;-77
2022/11/28 13:58:12;;;;;;;67.47;11.17;;;;;;;;;;5014231;28;20865;-76
2022/11/28 14:00:39;;;;;;;66.30;11.37;;;;;;;;;;5013999;28;20529;-77
2022/11/28 14:03:06;;;;;;;68.50;12.87;;;;;;;;;;5014589;28;20976;-76
2022/11/28 14:05:34;;;;;;;67.50;11.00;;;;;;;;;;5014465;28;20818;-76
2022/11/28 14:08:02;;;;;;;66.73;10.90;;;;;;;;;;5010591;28;20544;-76
2022/11/28 14:10:44;;;;;;;66.30;11.63;;;;;;;;;;5013308;28;20565;-76
2022/11/28 14:13:21;;;;;;;70.17;12.63;;;;;;;;;;5011990;28;20913;-76
2022/11/28 14:15:56;;;;;;;71.10;13.10;;;;;;;;;;5014341;28;20489;-77
2022/11/28 14:18:31;;;;;;;69.67;13.17;;;;;;;;;;5013982;28;20460;-77
2022/11/28 14:21:00;;;;;;;67.27;11.10;;;;;;;;;;5013836;28;20453;-76
2022/11/28 14:23:34;;;;;;;68.33;12.43;;;;;;;;;;5013846;28;20505;-77
2022/11/28 14:26:01;;;;;;;66.87;11.07;;;;;;;;;;5014027;28;20550;-77
2022/11/28 14:28:32;;;;;;;70.30;12.73;;;;;;;;;;5013054;28;20533;-76
2022/11/28 14:31:04;;;;;;;70.37;14.10;;;;;;;;;;5013865;28;20967;-76
2022/11/28 14:33:34;;;;;;;68.97;13.13;;;;;;;;;;5013448;28;21033;-76
2022/11/28 14:36:03;;;;;;;70.70;13.83;;;;;;;;;;5014100;28;20476;-76
2022/11/28 14:38:44;;;;;;;71.17;12.70;;;;;;;;;;5012321;28;21044;-77
2022/11/28 14:41:13;;;;;;;70.90;12.70;;;;;;;;;;5013618;28;20446;-77